Time;durP1;ratioP1;P1;durP2;ratioP2;P2;SDS_P1;SDS_P2;PMS_P1;PMS_P2;Temp;Humidity;BMP_temperature;BMP_pressure;BME280_temperature;BME280_humidity;BME280_pressure;Samples;Min_cycle;Max_cycle;Signal;HPM_P1;HPM_P2
2022/02/24 00:00:36;;;;;;;58.28;32.78;;;;;;;-0.47;100.00;99882.47;2083318;28;20245;-71
2022/02/24 00:01:38;;;;;;;57.90;32.20;;;;;;;-0.53;100.00;99878.03;2083471;28;20175;-71
2022/02/24 00:02:41;;;;;;;62.50;31.73;;;;;;;-0.57;100.00;99888.94;2083448;28;20198;-71
2022/02/24 00:03:46;;;;;;;58.97;31.70;;;;;;;-0.61;100.00;99887.75;2083168;28;20220;-71
2022/02/24 00:04:55;;;;;;;56.53;29.70;;;;;;;-0.66;100.00;99884.91;2090604;28;20203;-71
2022/02/24 00:06:02;;;;;;;58.65;31.73;;;;;;;-0.73;100.00;99881.47;2081745;28;20290;-74
2022/02/24 00:07:07;;;;;;;52.05;31.02;;;;;;;-0.78;100.00;99881.28;2082680;28;20221;-71
2022/02/24 00:08:15;;;;;;;55.97;29.98;;;;;;;-0.81;100.00;99881.69;2083055;28;20190;-70
2022/02/24 00:09:17;;;;;;;54.97;31.58;;;;;;;-0.85;100.00;99883.09;2083313;28;20279;-71
2022/02/24 00:10:23;;;;;;;60.80;31.85;;;;;;;-0.89;100.00;99874.00;2083254;28;20194;-71
2022/02/24 00:11:28;;;;;;;54.22;29.05;;;;;;;-0.90;100.00;99877.66;2083164;28;20222;-70
2022/02/24 00:12:39;;;;;;;61.78;31.25;;;;;;;-0.91;100.00;99882.09;2083139;28;20195;-70
2022/02/24 00:13:45;;;;;;;54.53;31.40;;;;;;;-0.88;100.00;99886.09;2082960;28;20666;-72
2022/02/24 00:14:50;;;;;;;57.47;31.90;;;;;;;-0.88;100.00;99886.09;2082578;28;20658;-70
2022/02/24 00:15:55;;;;;;;63.47;33.00;;;;;;;-0.88;100.00;99876.44;2083004;28;20231;-71
2022/02/24 00:16:57;;;;;;;64.05;31.35;;;;;;;-0.78;100.00;99878.69;2082564;28;20659;-71
2022/02/24 00:18:01;;;;;;;60.75;32.33;;;;;;;-0.70;100.00;99878.44;2082504;28;20574;-71
2022/02/24 00:19:07;;;;;;;62.97;32.53;;;;;;;-0.61;100.00;99872.03;2083004;28;20199;-71
2022/02/24 00:20:15;;;;;;;69.10;33.00;;;;;;;-0.52;100.00;99879.63;2082378;28;20257;-70
2022/02/24 00:21:18;;;;;;;57.13;32.63;;;;;;;-0.46;100.00;99877.03;2081983;28;20239;-70
2022/02/24 00:22:22;;;;;;;54.38;29.73;;;;;;;-0.43;100.00;99881.06;2083229;28;20219;-70
2022/02/24 00:23:27;;;;;;;61.30;31.58;;;;;;;-0.44;100.00;99879.44;2082317;28;20206;-71
2022/02/24 00:24:32;;;;;;;65.13;31.85;;;;;;;-0.46;100.00;99873.59;2082402;28;20249;-70
2022/02/24 00:25:40;;;;;;;66.05;32.50;;;;;;;-0.46;100.00;99884.88;2082607;28;20200;-70
2022/02/24 00:26:45;;;;;;;59.80;31.52;;;;;;;-0.48;100.00;99875.63;2075177;28;20295;-71
2022/02/24 00:27:50;;;;;;;57.60;31.92;;;;;;;-0.47;100.00;99874.59;2082391;28;20199;-70
2022/02/24 00:28:59;;;;;;;71.57;32.40;;;;;;;-0.48;100.00;99878.25;2082525;28;20318;-70
2022/02/24 00:30:04;;;;;;;68.57;32.20;;;;;;;-0.50;100.00;99875.03;2082464;28;20188;-71
2022/02/24 00:31:08;;;;;;;68.68;32.00;;;;;;;-0.51;100.00;99879.47;2083022;28;20176;-70
2022/02/24 00:32:17;;;;;;;52.08;29.48;;;;;;;-0.53;100.00;99875.41;2082903;28;20558;-71
2022/02/24 00:33:23;;;;;;;61.92;32.20;;;;;;;-0.58;100.00;99876.84;2082880;28;20214;-71
2022/02/24 00:34:26;;;;;;;53.92;29.60;;;;;;;-0.63;100.00;99871.38;2083202;28;20189;-70
2022/02/24 00:35:32;;;;;;;48.40;29.52;;;;;;;-0.70;100.00;99878.44;2082123;28;20200;-70
2022/02/24 00:36:34;;;;;;;50.92;28.98;;;;;;;-0.77;100.00;99871.63;2082020;28;20223;-71
2022/02/24 00:37:36;;;;;;;57.50;30.50;;;;;;;-0.84;100.00;99871.63;2090528;28;20289;-70
2022/02/24 00:38:41;;;;;;;47.17;29.48;;;;;;;-0.91;100.00;99879.47;2082196;28;20713;-71
2022/02/24 00:39:51;;;;;;;61.53;30.60;;;;;;;-0.95;100.00;99869.59;2082603;28;20200;-71
2022/02/24 00:40:59;;;;;;;59.30;31.30;;;;;;;-0.99;100.00;99863.13;2082352;28;20599;-70
2022/02/24 00:42:04;;;;;;;55.72;31.02;;;;;;;-1.00;100.00;99862.34;2083108;28;20214;-71
2022/02/24 00:43:08;;;;;;;59.60;31.20;;;;;;;-0.99;100.00;99857.91;2082882;28;20195;-70
2022/02/24 00:44:10;;;;;;;65.47;31.42;;;;;;;-0.99;100.00;99873.63;2082770;28;20222;-70
2022/02/24 00:45:13;;;;;;;58.35;30.50;;;;;;;-1.05;100.00;99858.69;2082442;28;20255;-71
2022/02/24 00:46:18;;;;;;;61.00;30.63;;;;;;;-1.10;100.00;99855.88;2074068;28;20283;-71
2022/02/24 00:47:24;;;;;;;60.08;29.85;;;;;;;-1.19;100.00;99860.50;2074897;28;20200;-70
2022/02/24 00:48:28;;;;;;;60.55;31.52;;;;;;;-1.26;100.00;99852.63;2082205;28;20274;-70
2022/02/24 00:49:38;;;;;;;62.70;31.13;;;;;;;-1.29;100.00;99853.06;2082194;28;20188;-71
2022/02/24 00:50:42;;;;;;;63.65;31.95;;;;;;;-1.30;100.00;99861.91;2082169;28;20581;-71
2022/02/24 00:51:44;;;;;;;69.88;32.53;;;;;;;-1.34;100.00;99850.22;2073934;28;20307;-71
2022/02/24 00:52:46;;;;;;;66.35;30.63;;;;;;;-1.34;100.00;99847.59;2082427;28;20674;-70
2022/02/24 00:53:53;;;;;;;57.85;32.72;;;;;;;-1.36;100.00;99849.59;2082654;28;20563;-71
2022/02/24 00:54:59;;;;;;;58.08;31.23;;;;;;;-1.41;100.00;99846.78;2082784;28;20237;-71
2022/02/24 00:56:01;;;;;;;62.67;32.90;;;;;;;-1.45;100.00;99845.56;2082799;28;20223;-70
2022/02/24 00:57:07;;;;;;;59.40;29.88;;;;;;;-1.51;100.00;99849.78;2082719;28;20651;-70
2022/02/24 00:58:09;;;;;;;61.85;31.90;;;;;;;-1.55;100.00;99848.56;2082341;28;20658;-71
2022/02/24 00:59:12;;;;;;;61.72;31.92;;;;;;;-1.60;100.00;99848.34;2082316;28;20710;-71
2022/02/24 01:00:17;;;;;;;67.30;31.40;;;;;;;-1.64;100.00;99851.56;2082191;28;20195;-70
2022/02/24 01:01:22;;;;;;;62.15;31.27;;;;;;;-1.69;100.00;99846.09;2082460;28;20235;-70
2022/02/24 01:02:28;;;;;;;64.75;30.65;;;;;;;-1.75;100.00;99843.25;2082136;28;20253;-70
2022/02/24 01:03:32;;;;;;;57.80;30.70;;;;;;;-1.78;100.00;99854.13;2081932;28;20211;-70
2022/02/24 01:04:40;;;;;;;57.30;32.55;;;;;;;-1.81;100.00;99846.69;2082376;28;20204;-70
2022/02/24 01:05:44;;;;;;;59.38;31.70;;;;;;;-1.85;100.00;99848.06;2081671;28;20211;-70
2022/02/24 01:06:49;;;;;;;54.47;31.27;;;;;;;-1.89;100.00;99851.28;2081625;28;20227;-70
2022/02/24 01:07:56;;;;;;;54.83;31.23;;;;;;;-1.91;100.00;99850.63;2082081;28;20225;-71
2022/02/24 01:09:01;;;;;;;53.42;32.33;;;;;;;-1.94;100.00;99854.47;2090094;28;20234;-70
2022/02/24 01:10:06;;;;;;;60.15;32.05;;;;;;;-2.01;100.00;99843.16;2089834;28;20290;-70
2022/02/24 01:11:12;;;;;;;69.63;33.35;;;;;;;-2.04;100.00;99849.59;2082598;28;20199;-70
2022/02/24 01:12:17;;;;;;;54.40;31.30;;;;;;;-2.08;100.00;99848.38;2082276;28;20200;-70
2022/02/24 01:13:19;;;;;;;57.38;31.17;;;;;;;-2.13;100.00;99844.72;2082374;28;20218;-70
2022/02/24 01:14:25;;;;;;;60.77;32.50;;;;;;;-2.14;100.00;99850.97;2082745;28;20179;-70
2022/02/24 01:15:28;;;;;;;56.83;30.38;;;;;;;-2.18;100.00;99850.50;2082291;28;20257;-71
2022/02/24 01:16:33;;;;;;;58.30;30.90;;;;;;;-2.18;100.00;99842.69;2081864;28;20200;-70
2022/02/24 01:17:39;;;;;;;62.00;32.42;;;;;;;-2.18;100.00;99847.91;2082252;28;20195;-71
2022/02/24 01:18:46;;;;;;;73.75;34.90;;;;;;;-2.13;100.00;99853.38;2082223;28;20203;-70
2022/02/24 01:19:48;;;;;;;65.72;34.28;;;;;;;-2.09;100.00;99846.75;2081866;28;20214;-70
2022/02/24 01:20:56;;;;;;;66.78;33.30;;;;;;;-2.04;100.00;99843.56;2082598;28;20187;-71
2022/02/24 01:22:01;;;;;;;65.38;34.30;;;;;;;-1.88;100.00;99847.66;2081469;28;20641;-70
2022/02/24 01:23:05;;;;;;;72.93;35.35;;;;;;;-1.74;100.00;99850.13;2081968;28;20266;-71
2022/02/24 01:24:12;;;;;;;74.60;35.22;;;;;;;-1.69;100.00;99851.34;2090056;28;20205;-70
2022/02/24 01:25:19;;;;;;;69.53;34.90;;;;;;;-1.65;100.00;99848.16;2089459;28;20191;-71
2022/02/24 01:26:23;;;;;;;78.28;36.22;;;;;;;-1.66;100.00;99850.94;2090028;28;20718;-71
2022/02/24 01:27:26;;;;;;;61.08;31.40;;;;;;;-1.67;100.00;99844.91;2089873;28;20241;-70
2022/02/24 01:28:31;;;;;;;59.42;31.95;;;;;;;-1.71;100.00;99848.91;2082127;28;20201;-71
2022/02/24 01:29:36;;;;;;;61.58;32.85;;;;;;;-1.81;100.00;99841.44;2081617;28;20262;-71
2022/02/24 01:30:42;;;;;;;59.60;33.42;;;;;;;-1.88;100.00;99848.47;2082585;28;20675;-71
2022/02/24 01:31:48;;;;;;;52.60;33.58;;;;;;;-1.90;100.00;99853.09;2082066;28;20238;-71
2022/02/24 01:32:52;;;;;;;60.72;33.17;;;;;;;-1.94;100.00;99853.66;2081921;28;20685;-71
2022/02/24 01:33:54;;;;;;;54.78;31.25;;;;;;;-2.01;100.00;99856.22;2081745;28;20270;-71
2022/02/24 01:35:01;;;;;;;56.63;31.45;;;;;;;-2.07;100.00;99847.38;2082010;28;20195;-71
2022/02/24 01:36:05;;;;;;;71.05;32.35;;;;;;;-2.13;100.00;99850.75;2081186;28;20206;-70
2022/02/24 01:37:08;;;;;;;58.10;31.90;;;;;;;-2.16;100.00;99851.16;2081908;28;20625;-70
2022/02/24 01:38:14;;;;;;;55.20;31.45;;;;;;;-2.20;100.00;99846.50;2082375;28;20196;-70
2022/02/24 01:39:21;;;;;;;60.58;33.53;;;;;;;-2.24;100.00;99847.91;2081657;28;20203;-71
2022/02/24 01:40:24;;;;;;;55.85;31.13;;;;;;;-2.29;100.00;99846.66;2074478;28;20261;-71
2022/02/24 01:41:28;;;;;;;62.92;32.75;;;;;;;-2.32;100.00;99841.81;2081956;28;20230;-71
2022/02/24 01:42:32;;;;;;;75.55;35.15;;;;;;;-2.34;100.00;99843.03;2081694;28;20699;-70
2022/02/24 01:43:37;;;;;;;78.13;37.50;;;;;;;-2.32;100.00;99839.22;2081870;28;20222;-72
2022/02/24 01:44:42;;;;;;;66.63;33.47;;;;;;;-2.25;100.00;99841.06;2082000;28;20333;-70
2022/02/24 01:45:50;;;;;;;54.95;33.08;;;;;;;-2.25;100.00;99839.25;2081428;28;20598;-70
2022/02/24 01:46:53;;;;;;;51.00;31.17;;;;;;;-2.25;100.00;99841.06;2082415;28;20654;-71
2022/02/24 01:47:58;;;;;;;67.35;34.33;;;;;;;-2.30;100.00;99833.78;2081920;28;20204;-71
2022/02/24 01:49:01;;;;;;;59.58;32.97;;;;;;;-2.32;100.00;99841.00;2074452;28;20234;-71
2022/02/24 01:50:06;;;;;;;58.60;31.08;;;;;;;-2.37;100.00;99836.34;2081990;28;20586;-70
2022/02/24 01:51:10;;;;;;;58.38;31.98;;;;;;;-2.42;100.00;99830.91;2081609;28;20337;-70
2022/02/24 01:52:17;;;;;;;59.88;31.38;;;;;;;-2.47;100.00;99832.47;2082053;28;20290;-71
2022/02/24 01:53:19;;;;;;;51.92;30.00;;;;;;;-2.50;100.00;99843.31;2081791;28;20196;-70
2022/02/24 01:54:28;;;;;;;56.75;32.17;;;;;;;-2.55;100.00;99841.28;2082252;28;20191;-70
2022/02/24 01:55:37;;;;;;;62.13;31.48;;;;;;;-2.58;100.00;99847.69;2081641;28;20206;-70
2022/02/24 01:56:44;;;;;;;58.80;31.10;;;;;;;-2.62;100.00;99843.03;2081602;28;20689;-70
2022/02/24 01:57:50;;;;;;;53.58;30.30;;;;;;;-2.63;100.00;99849.25;2081937;28;20250;-70
2022/02/24 01:58:57;;;;;;;56.42;30.50;;;;;;;-2.68;100.00;99843.81;2082303;28;20199;-69
2022/02/24 02:00:05;;;;;;;46.60;30.10;;;;;;;-2.68;100.00;99842.00;2081530;28;20218;-69
2022/02/24 02:01:16;;;;;;;55.30;30.55;;;;;;;-2.67;100.00;99848.03;2081997;28;20187;-70
2022/02/24 02:02:20;;;;;;;57.88;31.85;;;;;;;-2.68;100.00;99851.66;2081674;28;20254;-70
2022/02/24 02:03:27;;;;;;;60.65;32.08;;;;;;;-2.67;100.00;99855.88;2081563;28;20651;-70
2022/02/24 02:04:30;;;;;;;68.47;33.47;;;;;;;-2.67;100.00;99848.03;2082215;28;20196;-69
2022/02/24 02:05:36;;;;;;;60.10;33.65;;;;;;;-2.67;100.00;99853.25;2081414;28;20744;-70
2022/02/24 02:06:41;;;;;;;73.35;34.20;;;;;;;-2.64;100.00;99852.88;2074195;28;20220;-69
2022/02/24 02:07:45;;;;;;;70.70;35.05;;;;;;;-2.61;100.00;99855.09;2081349;28;20203;-69
2022/02/24 02:08:48;;;;;;;67.65;34.40;;;;;;;-2.60;100.00;99848.91;2081628;28;20203;-70
2022/02/24 02:09:55;;;;;;;69.88;33.67;;;;;;;-2.59;100.00;99847.88;2082239;28;20214;-70
2022/02/24 02:10:59;;;;;;;59.75;31.23;;;;;;;-2.61;100.00;99852.47;2081846;28;20237;-70
2022/02/24 02:12:04;;;;;;;65.15;31.05;;;;;;;-2.63;100.00;99847.44;2073742;28;20202;-70
2022/02/24 02:13:07;;;;;;;51.53;30.38;;;;;;;-2.64;100.00;99855.47;2081613;28;20252;-69
2022/02/24 02:14:12;;;;;;;62.40;30.90;;;;;;;-2.67;100.00;99853.25;2081521;28;20575;-69
2022/02/24 02:15:13;;;;;;;59.70;32.00;;;;;;;-2.70;100.00;99851.00;2081491;28;20245;-69
2022/02/24 02:16:18;;;;;;;60.50;31.92;;;;;;;-2.71;100.00;99854.63;2081658;28;20196;-70
2022/02/24 02:17:24;;;;;;;55.72;32.70;;;;;;;-2.74;100.00;99853.19;2082119;28;20203;-69
2022/02/24 02:18:33;;;;;;;54.65;31.58;;;;;;;-2.76;100.00;99854.41;2082047;28;20200;-69
2022/02/24 02:19:38;;;;;;;58.95;30.33;;;;;;;-2.79;100.00;99854.75;2081690;28;20226;-70
2022/02/24 02:20:51;;;;;;;56.90;31.08;;;;;;;-2.82;100.00;99852.53;2081317;28;20194;-70
2022/02/24 02:21:54;;;;;;;55.55;31.40;;;;;;;-2.86;100.00;99855.53;2072908;28;20227;-69
2022/02/24 02:22:57;;;;;;;70.40;33.00;;;;;;;-2.86;100.00;99855.53;2073269;28;20227;-70
2022/02/24 02:24:01;;;;;;;59.53;31.35;;;;;;;-2.88;100.00;99847.06;2073448;28;20732;-70
2022/02/24 02:25:07;;;;;;;55.22;30.15;;;;;;;-2.89;100.00;99850.66;2073977;28;20202;-70
2022/02/24 02:26:12;;;;;;;57.47;31.50;;;;;;;-2.88;100.00;99852.28;2072647;28;20200;-69
2022/02/24 02:27:22;;;;;;;66.53;33.13;;;;;;;-2.88;100.00;99846.25;2065749;28;20208;-69
2022/02/24 02:28:26;;;;;;;60.53;31.27;;;;;;;-2.90;100.00;99848.25;2066452;28;20228;-70
2022/02/24 02:29:27;;;;;;;57.92;32.53;;;;;;;-2.91;100.00;99844.84;2073177;28;20235;-70
2022/02/24 02:30:30;;;;;;;58.15;31.23;;;;;;;-2.91;100.00;99847.44;2073273;28;20287;-70
2022/02/24 02:31:36;;;;;;;60.47;31.85;;;;;;;-2.94;100.00;99850.44;2073433;28;20192;-71
2022/02/24 02:32:41;;;;;;;54.72;31.13;;;;;;;-2.98;100.00;99846.59;2074018;28;20176;-70
2022/02/24 02:33:46;;;;;;;63.50;32.20;;;;;;;-2.96;100.00;99854.22;2073558;28;20219;-69
2022/02/24 02:34:54;;;;;;;71.60;32.38;;;;;;;-2.98;100.00;99857.03;2073560;28;20199;-70
2022/02/24 02:36:00;;;;;;;59.35;31.40;;;;;;;-2.99;100.00;99860.63;2074071;28;20195;-70
2022/02/24 02:37:01;;;;;;;63.08;31.65;;;;;;;-2.98;100.00;99866.66;2082378;28;20683;-70
2022/02/24 02:38:06;;;;;;;57.65;32.38;;;;;;;-2.98;100.00;99864.84;2081658;28;20204;-70
2022/02/24 02:39:11;;;;;;;60.90;33.08;;;;;;;-2.98;100.00;99854.41;2081500;28;20195;-69
2022/02/24 02:40:18;;;;;;;63.75;32.65;;;;;;;-2.96;100.00;99855.03;2082121;28;20190;-70
2022/02/24 02:41:21;;;;;;;61.58;32.67;;;;;;;-2.99;100.00;99850.19;2081819;28;20211;-70
2022/02/24 02:42:24;;;;;;;60.55;30.58;;;;;;;-3.02;100.00;99853.19;2081638;28;20192;-70
2022/02/24 02:43:25;;;;;;;65.63;32.30;;;;;;;-3.02;100.00;99858.41;2081663;28;20208;-70
2022/02/24 02:44:28;;;;;;;64.25;31.50;;;;;;;-3.03;100.00;99856.78;2081596;28;20188;-70
2022/02/24 02:45:31;;;;;;;67.57;32.95;;;;;;;-3.06;100.00;99849.31;2082075;28;20214;-70
2022/02/24 02:46:36;;;;;;;73.63;33.65;;;;;;;-3.05;100.00;99855.34;2082021;28;20206;-70
2022/02/24 02:47:42;;;;;;;65.63;33.30;;;;;;;-3.06;100.00;99848.53;2081342;28;20207;-71
2022/02/24 02:48:46;;;;;;;56.95;30.17;;;;;;;-3.08;100.00;99853.13;2073995;28;20219;-70
2022/02/24 02:49:49;;;;;;;53.75;32.72;;;;;;;-3.10;100.00;99842.88;2073939;28;20220;-70
2022/02/24 02:50:53;;;;;;;53.10;30.40;;;;;;;-3.15;100.00;99840.81;2073595;28;20702;-70
2022/02/24 02:51:56;;;;;;;59.65;32.05;;;;;;;-3.14;100.00;99852.06;2081365;28;20249;-70
2022/02/24 02:53:03;;;;;;;58.25;31.48;;;;;;;-3.18;100.00;99856.06;2081687;28;20214;-70
2022/02/24 02:54:06;;;;;;;67.53;32.45;;;;;;;-3.16;100.00;99861.88;2081518;28;20569;-70
2022/02/24 02:55:12;;;;;;;55.95;31.40;;;;;;;-3.19;100.00;99852.63;2081939;28;20187;-70
2022/02/24 02:56:17;;;;;;;58.95;31.52;;;;;;;-3.20;100.00;99858.06;2082009;28;20218;-70
2022/02/24 02:57:21;;;;;;;62.47;33.13;;;;;;;-3.19;100.00;99863.06;2082025;28;20198;-70
2022/02/24 02:58:23;;;;;;;63.85;34.13;;;;;;;-3.19;100.00;99864.88;2082019;28;20681;-70
2022/02/24 02:59:26;;;;;;;67.88;33.85;;;;;;;-3.19;100.00;99864.88;2082261;28;20241;-70
2022/02/24 03:00:31;;;;;;;64.43;32.17;;;;;;;-3.21;100.00;99857.25;2081118;28;20755;-70
2022/02/24 03:01:35;;;;;;;60.78;33.50;;;;;;;-3.22;100.00;99855.59;2081444;28;20184;-70
2022/02/24 03:02:40;;;;;;;63.30;33.08;;;;;;;-3.22;100.00;99857.41;2081763;28;20623;-70
2022/02/24 03:03:41;;;;;;;65.32;32.92;;;;;;;-3.22;100.00;99854.78;2073501;28;20197;-70
2022/02/24 03:04:44;;;;;;;63.57;33.37;;;;;;;-3.22;100.00;99849.56;2081454;28;20184;-71
2022/02/24 03:05:46;;;;;;;66.93;34.35;;;;;;;-3.23;100.00;99858.41;2081279;28;20207;-70
2022/02/24 03:06:51;;;;;;;67.72;34.70;;;;;;;-3.23;100.00;99856.59;2081131;28;20704;-70
2022/02/24 03:08:01;;;;;;;68.03;34.33;;;;;;;-3.20;100.00;99855.44;2081951;28;20191;-70
2022/02/24 03:09:03;;;;;;;66.25;34.65;;;;;;;-3.18;100.00;99851.63;2081644;28;20219;-70
2022/02/24 03:10:09;;;;;;;58.17;33.95;;;;;;;-3.16;100.00;99849.66;2081580;28;20204;-69
2022/02/24 03:11:14;;;;;;;63.92;32.72;;;;;;;-3.15;100.00;99855.66;2080770;28;20200;-69
2022/02/24 03:12:17;;;;;;;66.55;33.05;;;;;;;-3.14;100.00;99846.84;2081428;28;20650;-70
2022/02/24 03:13:19;;;;;;;54.08;32.70;;;;;;;-3.18;100.00;99837.78;2081886;28;20242;-70
2022/02/24 03:14:23;;;;;;;60.75;34.38;;;;;;;-3.15;100.00;99853.06;2082288;28;20709;-69
2022/02/24 03:15:26;;;;;;;69.28;34.20;;;;;;;-3.18;100.00;99837.78;2082810;28;20632;-70
2022/02/24 03:16:32;;;;;;;60.22;32.40;;;;;;;-3.18;100.00;99840.41;2083331;28;20195;-70
2022/02/24 03:17:37;;;;;;;59.45;32.45;;;;;;;-3.18;100.00;99837.78;2090680;28;20514;-69
2022/02/24 03:18:41;;;;;;;63.05;31.73;;;;;;;-3.22;100.00;99831.31;2083489;28;20195;-70
2022/02/24 03:19:45;;;;;;;62.13;31.05;;;;;;;-3.22;100.00;99841.75;2083141;28;20191;-69
2022/02/24 03:20:48;;;;;;;62.80;33.00;;;;;;;-3.24;100.00;99846.34;2082863;28;20650;-70
2022/02/24 03:21:52;;;;;;;62.72;32.60;;;;;;;-3.24;100.00;99841.13;2074717;28;20246;-69
2022/02/24 03:23:00;;;;;;;66.15;33.65;;;;;;;-3.24;100.00;99848.97;2082862;28;20696;-70
2022/02/24 03:24:02;;;;;;;52.28;31.80;;;;;;;-3.24;100.00;99843.75;2082930;28;20765;-69
2022/02/24 03:25:06;;;;;;;62.25;32.83;;;;;;;-3.25;100.00;99850.75;2083375;28;20650;-69
2022/02/24 03:26:10;;;;;;;68.90;34.22;;;;;;;-3.24;100.00;99846.34;2082707;28;20208;-69
2022/02/24 03:27:12;;;;;;;63.92;33.80;;;;;;;-3.17;100.00;99850.63;2082780;28;20202;-69
2022/02/24 03:28:17;;;;;;;64.78;33.22;;;;;;;-3.13;100.00;99848.44;2082743;28;20673;-70
2022/02/24 03:29:23;;;;;;;69.15;33.05;;;;;;;-3.06;100.00;99853.75;2082743;28;20713;-70
2022/02/24 03:30:28;;;;;;;60.53;33.50;;;;;;;-3.04;100.00;99847.34;2083118;28;20265;-69
2022/02/24 03:31:35;;;;;;;65.22;33.75;;;;;;;-3.01;100.00;99844.34;2083396;28;20192;-69
2022/02/24 03:32:38;;;;;;;61.97;32.53;;;;;;;-2.97;100.00;99842.97;2083054;28;20203;-69
2022/02/24 03:33:42;;;;;;;65.93;32.03;;;;;;;-2.97;100.00;99840.38;2082811;28;20298;-70
2022/02/24 03:34:45;;;;;;;51.30;31.58;;;;;;;-2.98;100.00;99835.34;2083100;28;20211;-69
2022/02/24 03:35:47;;;;;;;57.25;32.35;;;;;;;-3.02;100.00;99837.53;2082843;28;20200;-70
2022/02/24 03:36:54;;;;;;;58.08;33.50;;;;;;;-3.06;100.00;99832.84;2082629;28;20306;-69
2022/02/24 03:38:00;;;;;;;58.05;33.70;;;;;;;-3.10;100.00;99842.06;2082765;28;20199;-70
2022/02/24 03:39:07;;;;;;;52.78;32.47;;;;;;;-3.13;100.00;99835.41;2083018;28;20566;-70
2022/02/24 03:40:12;;;;;;;58.42;32.78;;;;;;;-3.16;100.00;99835.78;2075651;28;20692;-70
2022/02/24 03:41:14;;;;;;;69.10;33.28;;;;;;;-3.15;100.00;99832.19;2083100;28;20226;-70
2022/02/24 03:42:18;;;;;;;64.75;33.42;;;;;;;-3.16;100.00;99827.97;2091051;28;20348;-69
2022/02/24 03:43:23;;;;;;;59.42;31.70;;;;;;;-3.17;100.00;99826.34;2082990;28;20298;-70
2022/02/24 03:44:26;;;;;;;73.75;32.45;;;;;;;-3.19;100.00;99830.97;2082731;28;20566;-69
2022/02/24 03:45:32;;;;;;;57.42;33.33;;;;;;;-3.21;100.00;99828.53;2083317;28;20195;-70
2022/02/24 03:46:37;;;;;;;57.00;31.58;;;;;;;-3.24;100.00;99828.91;2083266;28;20187;-69
2022/02/24 03:47:41;;;;;;;60.33;33.08;;;;;;;-3.26;100.00;99825.69;2083591;28;20214;-69
2022/02/24 03:48:44;;;;;;;78.00;35.45;;;;;;;-3.24;100.00;99828.09;2082565;28;20287;-69
2022/02/24 03:49:46;;;;;;;64.07;35.35;;;;;;;-3.22;100.00;99823.47;2082683;28;20265;-70
2022/02/24 03:50:53;;;;;;;77.90;36.97;;;;;;;-3.21;100.00;99823.31;2082947;28;20221;-70
2022/02/24 03:51:58;;;;;;;70.90;36.30;;;;;;;-3.20;100.00;99821.53;2075102;28;20270;-70
2022/02/24 03:53:06;;;;;;;68.63;34.20;;;;;;;-3.16;100.00;99830.56;2083239;28;20199;-70
2022/02/24 03:54:07;;;;;;;71.43;35.33;;;;;;;-3.17;100.00;99821.13;2082578;28;20769;-70
2022/02/24 03:55:10;;;;;;;68.40;36.77;;;;;;;-3.15;100.00;99819.94;2082696;28;20556;-71
2022/02/24 03:56:11;;;;;;;64.53;35.90;;;;;;;-3.11;100.00;99820.38;2082595;28;20203;-71
2022/02/24 03:57:19;;;;;;;73.97;35.72;;;;;;;-3.11;100.00;99825.59;2074407;28;20753;-71
2022/02/24 03:58:23;;;;;;;62.20;34.95;;;;;;;-3.13;100.00;99824.97;2082625;28;20331;-70
2022/02/24 03:59:26;;;;;;;67.22;33.70;;;;;;;-3.15;100.00;99826.97;2083173;28;20294;-71
2022/02/24 04:00:30;;;;;;;66.78;34.33;;;;;;;-3.20;100.00;99826.75;2082364;28;20308;-71
2022/02/24 04:01:36;;;;;;;61.85;33.58;;;;;;;-3.22;100.00;99823.47;2075166;28;20587;-71
2022/02/24 04:02:39;;;;;;;64.95;35.42;;;;;;;-3.23;100.00;99816.66;2082871;28;20236;-71
2022/02/24 04:03:42;;;;;;;69.82;35.38;;;;;;;-3.18;100.00;99819.53;2082762;28;20199;-71
2022/02/24 04:04:46;;;;;;;76.40;36.08;;;;;;;-3.16;100.00;99818.31;2074578;28;20227;-72
2022/02/24 04:05:53;;;;;;;65.43;35.85;;;;;;;-3.10;100.00;99815.97;2082528;28;20562;-71
2022/02/24 04:06:57;;;;;;;69.68;35.70;;;;;;;-3.09;100.00;99817.59;2082454;28;20706;-71
2022/02/24 04:08:04;;;;;;;66.57;35.58;;;;;;;-3.03;100.00;99827.28;2082535;28;20681;-71
2022/02/24 04:09:06;;;;;;;65.95;34.72;;;;;;;-3.05;100.00;99817.00;2083331;28;20171;-71
2022/02/24 04:10:13;;;;;;;69.10;34.72;;;;;;;-3.07;100.00;99821.63;2083052;28;20618;-71
2022/02/24 04:11:18;;;;;;;67.22;33.72;;;;;;;-3.06;100.00;99815.41;2083250;28;20165;-71
2022/02/24 04:12:25;;;;;;;72.60;33.67;;;;;;;-3.11;100.00;99812.56;2083031;28;20192;-72
2022/02/24 04:13:27;;;;;;;61.38;32.97;;;;;;;-3.15;100.00;99809.50;2083074;28;20662;-71
2022/02/24 04:14:31;;;;;;;59.78;33.20;;;;;;;-3.18;100.00;99809.09;2083185;28;20194;-71
2022/02/24 04:15:36;;;;;;;50.83;31.55;;;;;;;-3.20;100.00;99821.53;2083036;28;20266;-71
2022/02/24 04:16:38;;;;;;;61.15;33.50;;;;;;;-3.25;100.00;99816.03;2082364;28;20223;-70
2022/02/24 04:17:41;;;;;;;68.53;36.28;;;;;;;-3.29;100.00;99818.22;2082380;28;20199;-71
2022/02/24 04:18:47;;;;;;;75.32;37.17;;;;;;;-3.30;100.00;99815.78;2082504;28;20594;-71
2022/02/24 04:19:52;;;;;;;83.60;40.00;;;;;;;-3.28;100.00;99808.59;2083323;28;20191;-71
2022/02/24 04:20:57;;;;;;;79.63;39.90;;;;;;;-3.28;100.00;99801.56;2089687;28;20272;-71
2022/02/24 04:22:01;;;;;;;77.25;37.63;;;;;;;-3.28;100.00;99808.59;2082275;28;20696;-71
2022/02/24 04:23:07;;;;;;;81.35;40.08;;;;;;;-3.29;100.00;99807.78;2082505;28;20188;-72
2022/02/24 04:24:09;;;;;;;69.38;35.88;;;;;;;-3.27;100.00;99810.22;2083047;28;20203;-71
2022/02/24 04:25:15;;;;;;;85.25;39.75;;;;;;;-3.28;100.00;99806.00;2090548;28;20214;-71
2022/02/24 04:26:18;;;;;;;88.03;41.35;;;;;;;-3.26;100.00;99806.59;2089829;28;20690;-71
2022/02/24 04:27:24;;;;;;;84.88;43.03;;;;;;;-3.27;100.00;99807.59;2082932;28;20195;-71
2022/02/24 04:28:28;;;;;;;58.85;33.25;;;;;;;-3.25;100.00;99803.00;2082231;28;20203;-71
2022/02/24 04:29:30;;;;;;;81.93;42.15;;;;;;;-3.22;100.00;99802.59;2082209;28;20786;-72
2022/02/24 04:30:33;;;;;;;106.05;44.38;;;;;;;-3.19;100.00;99802.25;2082881;28;20215;-71
2022/02/24 04:31:37;;;;;;;78.35;40.75;;;;;;;-3.14;100.00;99811.13;2082998;28;20673;-71
2022/02/24 04:32:42;;;;;;;75.15;38.15;;;;;;;-3.14;100.00;99800.69;2090465;28;20751;-71
2022/02/24 04:33:47;;;;;;;85.78;43.13;;;;;;;-3.14;100.00;99797.25;2082147;28;20247;-71
2022/02/24 04:34:55;;;;;;;93.13;45.28;;;;;;;-3.13;100.00;99801.47;2082356;28;20227;-71
2022/02/24 04:36:01;;;;;;;82.93;41.97;;;;;;;-3.14;100.00;99792.84;2082226;28;20207;-72
2022/02/24 04:37:03;;;;;;;80.10;40.67;;;;;;;-3.10;100.00;99806.34;2082952;28;20204;-71
2022/02/24 04:38:06;;;;;;;76.03;41.10;;;;;;;-3.02;100.00;99802.78;2082959;28;20195;-72
2022/02/24 04:39:08;;;;;;;75.15;39.60;;;;;;;-2.97;100.00;99806.44;2083098;28;20192;-71
2022/02/24 04:40:18;;;;;;;67.30;36.72;;;;;;;-2.98;100.00;99811.84;2082910;28;20191;-71
2022/02/24 04:41:22;;;;;;;50.28;28.55;;;;;;;-2.99;100.00;99808.44;2083142;28;20187;-72
2022/02/24 04:42:28;;;;;;;72.70;36.47;;;;;;;-2.95;100.00;99804.47;2082569;28;20291;-71
2022/02/24 04:43:33;;;;;;;72.80;37.97;;;;;;;-2.96;100.00;99808.03;2082324;28;20673;-71
2022/02/24 04:44:35;;;;;;;66.85;38.05;;;;;;;-3.00;100.00;99801.59;2083022;28;20203;-71
2022/02/24 04:45:38;;;;;;;64.53;36.40;;;;;;;-3.02;100.00;99803.59;2090777;28;20287;-71
2022/02/24 04:46:42;;;;;;;68.63;36.78;;;;;;;-3.03;100.00;99801.19;2082085;28;20286;-71
2022/02/24 04:47:49;;;;;;;71.72;36.88;;;;;;;-3.08;100.00;99798.31;2082262;28;20689;-71
2022/02/24 04:48:54;;;;;;;71.80;36.85;;;;;;;-3.13;100.00;99801.47;2083036;28;20188;-71
2022/02/24 04:49:59;;;;;;;69.85;36.95;;;;;;;-3.16;100.00;99794.84;2082833;28;20199;-71
2022/02/24 04:51:02;;;;;;;68.20;36.03;;;;;;;-3.20;100.00;99790.22;2081465;28;20606;-71
2022/02/24 04:52:06;;;;;;;72.82;37.28;;;;;;;-3.23;100.00;99795.78;2074666;28;20208;-72
2022/02/24 04:53:08;;;;;;;69.28;34.95;;;;;;;-3.26;100.00;99796.16;2074201;28;20607;-71
2022/02/24 04:54:15;;;;;;;70.40;36.10;;;;;;;-3.32;100.00;99794.31;2074056;28;20200;-71